sensor_id;sensor_type;location;lat;lon;timestamp;P1;durP1;ratioP1;P2;durP2;ratioP2
35757;SDS011;21879;50.110;18.900;2022-11-27T00:03:33;31.50;;;17.10;;
35757;SDS011;21879;50.110;18.900;2022-11-27T00:14:00;30.50;;;15.90;;
35757;SDS011;21879;50.110;18.900;2022-11-27T00:24:28;32.40;;;19.50;;
35757;SDS011;21879;50.110;18.900;2022-11-27T00:34:56;30.30;;;17.00;;
35757;SDS011;21879;50.110;18.900;2022-11-27T00:45:23;28.20;;;18.00;;
35757;SDS011;21879;50.110;18.900;2022-11-27T00:55:50;28.90;;;18.00;;
35757;SDS011;21879;50.110;18.900;2022-11-27T01:06:18;29.10;;;18.00;;
35757;SDS011;21879;50.110;18.900;2022-11-27T01:16:46;34.40;;;18.40;;
35757;SDS011;21879;50.110;18.900;2022-11-27T01:27:13;34.60;;;19.20;;
35757;SDS011;21879;50.110;18.900;2022-11-27T01:37:41;32.40;;;18.10;;
35757;SDS011;21879;50.110;18.900;2022-11-27T01:48:09;38.00;;;18.40;;
35757;SDS011;21879;50.110;18.900;2022-11-27T01:58:38;36.50;;;18.60;;
35757;SDS011;21879;50.110;18.900;2022-11-27T02:09:06;34.30;;;18.30;;
35757;SDS011;21879;50.110;18.900;2022-11-27T02:19:37;29.80;;;18.20;;
35757;SDS011;21879;50.110;18.900;2022-11-27T02:30:20;26.10;;;16.80;;
35757;SDS011;21879;50.110;18.900;2022-11-27T02:40:48;30.90;;;18.00;;
35757;SDS011;21879;50.110;18.900;2022-11-27T02:51:20;33.90;;;19.10;;
35757;SDS011;21879;50.110;18.900;2022-11-27T03:01:52;29.40;;;18.10;;
35757;SDS011;21879;50.110;18.900;2022-11-27T03:12:22;30.60;;;17.40;;
35757;SDS011;21879;50.110;18.900;2022-11-27T03:22:49;33.90;;;19.30;;
35757;SDS011;21879;50.110;18.900;2022-11-27T03:33:18;35.90;;;19.40;;
35757;SDS011;21879;50.110;18.900;2022-11-27T03:43:55;35.20;;;20.30;;
35757;SDS011;21879;50.110;18.900;2022-11-27T03:54:33;35.00;;;18.70;;
35757;SDS011;21879;50.110;18.900;2022-11-27T04:05:08;37.20;;;22.40;;
35757;SDS011;21879;50.110;18.900;2022-11-27T04:15:36;35.50;;;22.70;;
35757;SDS011;21879;50.110;18.900;2022-11-27T04:26:03;39.40;;;26.10;;
35757;SDS011;21879;50.110;18.900;2022-11-27T04:36:31;41.90;;;24.00;;
35757;SDS011;21879;50.110;18.900;2022-11-27T04:47:03;32.70;;;20.50;;
35757;SDS011;21879;50.110;18.900;2022-11-27T04:57:30;35.50;;;20.80;;
35757;SDS011;21879;50.110;18.900;2022-11-27T05:07:57;32.20;;;19.50;;
35757;SDS011;21879;50.110;18.900;2022-11-27T05:18:25;33.60;;;18.60;;
35757;SDS011;21879;50.110;18.900;2022-11-27T05:28:52;30.70;;;19.70;;
35757;SDS011;21879;50.110;18.900;2022-11-27T05:39:19;30.60;;;17.50;;
35757;SDS011;21879;50.110;18.900;2022-11-27T05:49:47;27.30;;;16.70;;
35757;SDS011;21879;50.110;18.900;2022-11-27T06:00:15;28.50;;;16.30;;
35757;SDS011;21879;50.110;18.900;2022-11-27T06:10:43;24.40;;;15.50;;
35757;SDS011;21879;50.110;18.900;2022-11-27T06:21:12;23.90;;;14.60;;
35757;SDS011;21879;50.110;18.900;2022-11-27T06:42:05;21.60;;;12.10;;
35757;SDS011;21879;50.110;18.900;2022-11-27T06:52:33;21.00;;;13.40;;
35757;SDS011;21879;50.110;18.900;2022-11-27T07:03:04;15.30;;;10.90;;
35757;SDS011;21879;50.110;18.900;2022-11-27T07:13:31;24.10;;;12.70;;
35757;SDS011;21879;50.110;18.900;2022-11-27T07:23:59;27.40;;;15.30;;
35757;SDS011;21879;50.110;18.900;2022-11-27T07:34:27;22.70;;;13.50;;
35757;SDS011;21879;50.110;18.900;2022-11-27T07:44:54;25.50;;;15.40;;
35757;SDS011;21879;50.110;18.900;2022-11-27T07:55:21;21.80;;;13.80;;
35757;SDS011;21879;50.110;18.900;2022-11-27T08:05:49;21.50;;;11.00;;
35757;SDS011;21879;50.110;18.900;2022-11-27T08:16:16;31.20;;;20.00;;
35757;SDS011;21879;50.110;18.900;2022-11-27T08:26:44;16.80;;;11.10;;
35757;SDS011;21879;50.110;18.900;2022-11-27T08:37:11;18.10;;;9.70;;
35757;SDS011;21879;50.110;18.900;2022-11-27T08:47:38;12.20;;;7.50;;
35757;SDS011;21879;50.110;18.900;2022-11-27T08:58:06;17.40;;;8.70;;
35757;SDS011;21879;50.110;18.900;2022-11-27T09:08:34;40.40;;;30.80;;
35757;SDS011;21879;50.110;18.900;2022-11-27T09:19:01;14.10;;;8.40;;
35757;SDS011;21879;50.110;18.900;2022-11-27T09:29:29;18.80;;;13.90;;
35757;SDS011;21879;50.110;18.900;2022-11-27T09:39:58;10.60;;;6.10;;
35757;SDS011;21879;50.110;18.900;2022-11-27T09:50:26;9.40;;;5.10;;
35757;SDS011;21879;50.110;18.900;2022-11-27T10:00:57;11.70;;;7.40;;
35757;SDS011;21879;50.110;18.900;2022-11-27T10:11:26;10.20;;;4.70;;
35757;SDS011;21879;50.110;18.900;2022-11-27T10:21:58;11.10;;;6.70;;
35757;SDS011;21879;50.110;18.900;2022-11-27T10:32:33;7.90;;;3.60;;
35757;SDS011;21879;50.110;18.900;2022-11-27T10:43:20;7.20;;;3.70;;
35757;SDS011;21879;50.110;18.900;2022-11-27T10:53:50;15.20;;;9.60;;
35757;SDS011;21879;50.110;18.900;2022-11-27T11:04:20;11.40;;;6.10;;
35757;SDS011;21879;50.110;18.900;2022-11-27T11:15:09;10.60;;;6.60;;
35757;SDS011;21879;50.110;18.900;2022-11-27T11:25:46;9.40;;;4.70;;
35757;SDS011;21879;50.110;18.900;2022-11-27T11:36:16;10.30;;;6.80;;
35757;SDS011;21879;50.110;18.900;2022-11-27T11:46:49;13.20;;;7.00;;
35757;SDS011;21879;50.110;18.900;2022-11-27T11:57:25;16.10;;;9.40;;
35757;SDS011;21879;50.110;18.900;2022-11-27T12:08:07;10.70;;;7.00;;
35757;SDS011;21879;50.110;18.900;2022-11-27T12:19:00;8.50;;;4.70;;
35757;SDS011;21879;50.110;18.900;2022-11-27T12:29:48;9.10;;;5.10;;
35757;SDS011;21879;50.110;18.900;2022-11-27T12:40:34;11.90;;;7.00;;
35757;SDS011;21879;50.110;18.900;2022-11-27T12:51:09;20.40;;;15.10;;
35757;SDS011;21879;50.110;18.900;2022-11-27T13:01:41;12.60;;;7.60;;
35757;SDS011;21879;50.110;18.900;2022-11-27T13:12:12;11.90;;;8.40;;
35757;SDS011;21879;50.110;18.900;2022-11-27T13:22:48;11.30;;;5.40;;
35757;SDS011;21879;50.110;18.900;2022-11-27T13:43:48;11.30;;;7.80;;
35757;SDS011;21879;50.110;18.900;2022-11-27T13:54:18;16.30;;;7.20;;
35757;SDS011;21879;50.110;18.900;2022-11-27T14:04:52;16.00;;;9.50;;
35757;SDS011;21879;50.110;18.900;2022-11-27T14:15:21;22.70;;;13.00;;
35757;SDS011;21879;50.110;18.900;2022-11-27T14:25:59;21.20;;;13.20;;
35757;SDS011;21879;50.110;18.900;2022-11-27T14:36:29;17.10;;;9.90;;
35757;SDS011;21879;50.110;18.900;2022-11-27T14:46:59;19.60;;;13.20;;
35757;SDS011;21879;50.110;18.900;2022-11-27T14:57:31;16.70;;;10.50;;
35757;SDS011;21879;50.110;18.900;2022-11-27T15:08:00;18.10;;;11.30;;
35757;SDS011;21879;50.110;18.900;2022-11-27T15:18:29;16.60;;;10.60;;
35757;SDS011;21879;50.110;18.900;2022-11-27T15:29:00;15.80;;;11.10;;
35757;SDS011;21879;50.110;18.900;2022-11-27T15:39:31;17.20;;;9.80;;
35757;SDS011;21879;50.110;18.900;2022-11-27T15:50:03;17.60;;;11.00;;
35757;SDS011;21879;50.110;18.900;2022-11-27T16:00:32;19.70;;;12.00;;
35757;SDS011;21879;50.110;18.900;2022-11-27T16:11:00;15.30;;;10.00;;
35757;SDS011;21879;50.110;18.900;2022-11-27T16:21:29;21.60;;;14.70;;
35757;SDS011;21879;50.110;18.900;2022-11-27T16:31:57;21.70;;;13.90;;
35757;SDS011;21879;50.110;18.900;2022-11-27T16:42:25;16.80;;;10.00;;
35757;SDS011;21879;50.110;18.900;2022-11-27T16:52:53;21.60;;;15.30;;
35757;SDS011;21879;50.110;18.900;2022-11-27T17:03:20;24.00;;;16.90;;
35757;SDS011;21879;50.110;18.900;2022-11-27T17:13:47;24.30;;;16.80;;
35757;SDS011;21879;50.110;18.900;2022-11-27T17:24:15;25.40;;;15.10;;
35757;SDS011;21879;50.110;18.900;2022-11-27T17:34:43;21.00;;;14.30;;
35757;SDS011;21879;50.110;18.900;2022-11-27T17:45:10;20.70;;;14.00;;
35757;SDS011;21879;50.110;18.900;2022-11-27T17:55:44;19.90;;;12.60;;
35757;SDS011;21879;50.110;18.900;2022-11-27T18:06:29;21.40;;;13.40;;
35757;SDS011;21879;50.110;18.900;2022-11-27T18:17:29;18.10;;;11.60;;
35757;SDS011;21879;50.110;18.900;2022-11-27T18:28:14;21.90;;;13.00;;
35757;SDS011;21879;50.110;18.900;2022-11-27T18:39:13;16.70;;;10.90;;
35757;SDS011;21879;50.110;18.900;2022-11-27T18:49:59;16.00;;;10.40;;
35757;SDS011;21879;50.110;18.900;2022-11-27T19:00:51;18.70;;;11.60;;
35757;SDS011;21879;50.110;18.900;2022-11-27T19:11:21;18.00;;;10.20;;
35757;SDS011;21879;50.110;18.900;2022-11-27T19:21:49;17.00;;;9.90;;
35757;SDS011;21879;50.110;18.900;2022-11-27T19:32:17;21.10;;;14.30;;
35757;SDS011;21879;50.110;18.900;2022-11-27T19:42:45;27.30;;;14.30;;
35757;SDS011;21879;50.110;18.900;2022-11-27T19:53:21;20.80;;;13.40;;
35757;SDS011;21879;50.110;18.900;2022-11-27T20:03:49;25.00;;;15.00;;
35757;SDS011;21879;50.110;18.900;2022-11-27T20:14:17;21.00;;;13.40;;
35757;SDS011;21879;50.110;18.900;2022-11-27T20:24:45;30.10;;;19.70;;
35757;SDS011;21879;50.110;18.900;2022-11-27T20:35:32;35.30;;;25.40;;
35757;SDS011;21879;50.110;18.900;2022-11-27T20:45:59;44.10;;;25.00;;
35757;SDS011;21879;50.110;18.900;2022-11-27T20:56:28;39.80;;;24.80;;
35757;SDS011;21879;50.110;18.900;2022-11-27T21:06:56;29.60;;;18.10;;
35757;SDS011;21879;50.110;18.900;2022-11-27T21:17:24;29.90;;;19.60;;
35757;SDS011;21879;50.110;18.900;2022-11-27T21:27:51;31.00;;;19.70;;
35757;SDS011;21879;50.110;18.900;2022-11-27T21:38:21;34.30;;;23.50;;
35757;SDS011;21879;50.110;18.900;2022-11-27T21:48:49;25.90;;;19.40;;
35757;SDS011;21879;50.110;18.900;2022-11-27T21:59:18;31.60;;;18.70;;
35757;SDS011;21879;50.110;18.900;2022-11-27T22:09:45;30.90;;;19.60;;
35757;SDS011;21879;50.110;18.900;2022-11-27T22:20:13;33.50;;;20.90;;
35757;SDS011;21879;50.110;18.900;2022-11-27T22:41:07;31.50;;;20.80;;
35757;SDS011;21879;50.110;18.900;2022-11-27T22:51:36;31.20;;;20.50;;
35757;SDS011;21879;50.110;18.900;2022-11-27T23:02:03;47.60;;;28.50;;
35757;SDS011;21879;50.110;18.900;2022-11-27T23:12:31;46.60;;;31.00;;
35757;SDS011;21879;50.110;18.900;2022-11-27T23:22:59;38.00;;;24.10;;
35757;SDS011;21879;50.110;18.900;2022-11-27T23:33:26;40.00;;;28.40;;
35757;SDS011;21879;50.110;18.900;2022-11-27T23:43:53;37.10;;;24.80;;
35757;SDS011;21879;50.110;18.900;2022-11-27T23:54:21;32.80;;;22.90;;
